createdAt,value
2023-03-12T00:02:36.165Z,101193.94
2023-03-12T00:05:40.750Z,101193.03
2023-03-12T00:08:44.689Z,101188.72
2023-03-12T00:11:48.523Z,101195.53
2023-03-12T00:14:52.169Z,101196.31
2023-03-12T00:17:57.209Z,101192.09
2023-03-12T00:21:00.806Z,101191.22
2023-03-12T00:24:05.630Z,101184.28
2023-03-12T00:27:09.323Z,101188.59
2023-03-12T00:30:14.150Z,101184.28
2023-03-12T00:33:19.153Z,101188.47
2023-03-12T00:36:27.220Z,101179.81
2023-03-12T00:39:30.874Z,101185.81
2023-03-12T00:42:34.798Z,101178.16
2023-03-12T00:45:38.933Z,101179.81
2023-03-12T00:48:44.653Z,101180.59
2023-03-12T00:51:48.750Z,101179.72
2023-03-12T00:54:52.642Z,101178.75
2023-03-12T00:57:56.549Z,101183.13
2023-03-12T01:01:00.460Z,101175.34
2023-03-12T01:04:05.914Z,101187.31
2023-03-12T01:07:09.658Z,101172.66
2023-03-12T01:10:18.410Z,101184.59
2023-03-12T01:13:22.730Z,101176.81
2023-03-12T01:16:28.627Z,101178.38
2023-03-12T01:19:33.985Z,101182.63
2023-03-12T01:22:38.619Z,101185.06
2023-03-12T01:25:42.956Z,101189.31
2023-03-12T01:28:46.652Z,101192.63
2023-03-12T01:31:52.308Z,101199.38
2023-03-12T01:34:58.903Z,101195.13
2023-03-12T01:38:03.281Z,101189.06
2023-03-12T01:41:06.990Z,101194.97
2023-03-12T01:44:15.978Z,101185.38
2023-03-12T01:47:19.981Z,101191.31
2023-03-12T01:50:25.103Z,101190.28
2023-03-12T01:53:30.787Z,101187.63
2023-03-12T01:56:37.694Z,101180.72
2023-03-12T01:59:48.207Z,101190.09
2023-03-12T02:02:56.302Z,101178.94
2023-03-12T02:06:10.029Z,101175.44
2023-03-12T02:09:15.517Z,101174.50
2023-03-12T02:12:19.744Z,101174.47
2023-03-12T02:15:23.999Z,101173.56
2023-03-12T02:18:28.497Z,101172.69
2023-03-12T02:21:37.481Z,101174.44
2023-03-12T02:24:48.319Z,101174.47
2023-03-12T02:27:54.123Z,101174.41
2023-03-12T02:31:03.656Z,101172.59
2023-03-12T02:34:08.642Z,101175.06
2023-03-12T02:37:12.400Z,101167.28
2023-03-12T02:40:26.337Z,101168.09
2023-03-12T02:43:32.025Z,101166.38
2023-03-12T02:46:41.300Z,101156.84
2023-03-12T02:49:45.079Z,101157.63
2023-03-12T02:52:48.643Z,101164.50
2023-03-12T02:55:52.360Z,101166.16
2023-03-12T02:58:57.384Z,101166.81
2023-03-12T03:02:03.353Z,101167.78
2023-03-12T03:05:08.413Z,101164.50
2023-03-12T03:08:12.188Z,101163.69
2023-03-12T03:11:15.995Z,101165.16
2023-03-12T03:14:21.419Z,101161.97
2023-03-12T03:17:25.165Z,101167.84
2023-03-12T03:20:28.783Z,101154.22
2023-03-12T03:23:33.281Z,101156.84
2023-03-12T03:26:37.164Z,101157.75
2023-03-12T03:29:42.635Z,101167.06
2023-03-12T03:32:46.342Z,101160.38
2023-03-12T03:35:50.232Z,101164.41
2023-03-12T03:38:53.913Z,101160.16
2023-03-12T03:41:57.625Z,101149.06
2023-03-12T03:45:02.630Z,101160.97
2023-03-12T03:48:07.225Z,101161.69
2023-03-12T03:51:12.732Z,101165.78
2023-03-12T03:54:16.430Z,101160.72
2023-03-12T03:57:20.197Z,101167.66
2023-03-12T04:00:25.642Z,101172.75
2023-03-12T04:03:29.534Z,101160.78
2023-03-12T04:06:33.209Z,101165.13
2023-03-12T04:09:37.479Z,101161.66
2023-03-12T04:12:41.189Z,101165.25
2023-03-12T04:15:50.824Z,101161.78
2023-03-12T04:18:54.817Z,101168.78
2023-03-12T04:21:58.366Z,101157.78
2023-03-12T04:25:02.173Z,101150.91
2023-03-12T04:28:06.708Z,101147.50
2023-03-12T04:31:13.699Z,101143.25
2023-03-12T04:34:17.364Z,101146.78
2023-03-12T04:37:20.967Z,101142.59
2023-03-12T04:40:24.673Z,101141.63
2023-03-12T04:43:29.058Z,101139.03
2023-03-12T04:46:34.087Z,101129.53
2023-03-12T04:49:39.404Z,101138.16
2023-03-12T04:52:43.090Z,101132.22
2023-03-12T04:55:46.691Z,101136.47
2023-03-12T04:58:50.625Z,101126.06
2023-03-12T05:01:55.598Z,101123.56
2023-03-12T05:04:59.293Z,101120.13
2023-03-12T05:08:02.973Z,101121.69
2023-03-12T05:11:07.295Z,101119.13
2023-03-12T05:14:12.727Z,101115.72
2023-03-12T05:17:17.834Z,101111.34
2023-03-12T05:20:21.881Z,101106.22
2023-03-12T05:23:25.607Z,101100.25
2023-03-12T05:26:32.567Z,101096.75
2023-03-12T05:29:36.666Z,101090.75
2023-03-12T05:32:41.786Z,101088.97
2023-03-12T05:35:45.476Z,101089.00
2023-03-12T05:38:49.191Z,101081.34
2023-03-12T05:41:54.069Z,101083.06
2023-03-12T05:44:59.342Z,101080.56
2023-03-12T05:48:04.528Z,101078.09
2023-03-12T05:51:08.297Z,101076.31
2023-03-12T05:54:12.027Z,101082.38
2023-03-12T05:57:15.909Z,101074.91
2023-03-12T06:00:21.770Z,101076.50
2023-03-12T06:03:26.971Z,101066.28
2023-03-12T06:06:32.803Z,101066.34
2023-03-12T06:09:37.711Z,101070.81
2023-03-12T06:12:41.712Z,101064.72
2023-03-12T06:15:45.409Z,101064.78
2023-03-12T06:18:54.206Z,101063.97
2023-03-12T06:21:58.078Z,101059.75
2023-03-12T06:25:01.786Z,101059.03
2023-03-12T06:28:05.839Z,101051.22
2023-03-12T06:31:10.119Z,101052.25
2023-03-12T06:34:16.889Z,101048.88
2023-03-12T06:37:20.542Z,101045.59
2023-03-12T06:40:24.194Z,101032.84
2023-03-12T06:43:30.279Z,101039.72
2023-03-12T06:46:34.402Z,101029.59
2023-03-12T06:49:39.738Z,101021.84
2023-03-12T06:52:43.370Z,101022.97
2023-03-12T06:55:48.168Z,101029.19
2023-03-12T06:58:51.765Z,101028.41
2023-03-12T07:01:55.383Z,101025.06
2023-03-12T07:05:00.422Z,101017.50
2023-03-12T07:08:04.627Z,101024.44
2023-03-12T07:11:08.442Z,101027.19
2023-03-12T07:14:12.078Z,101024.03
2023-03-12T07:17:15.683Z,101019.78
2023-03-12T07:20:21.284Z,101019.81
2023-03-12T07:23:25.257Z,101013.94
2023-03-12T07:26:28.959Z,101020.94
2023-03-12T07:29:32.564Z,101010.03
2023-03-12T07:32:36.879Z,101000.63
2023-03-12T07:35:42.210Z,101000.00
2023-03-12T07:38:45.869Z,100991.47
2023-03-12T07:41:50.469Z,100992.31
2023-03-12T07:44:54.111Z,100996.41
2023-03-12T07:47:57.952Z,100994.69
2023-03-12T07:51:03.422Z,101000.66
2023-03-12T07:54:10.670Z,101004.94
2023-03-12T07:57:14.646Z,101000.66
2023-03-12T08:00:18.911Z,101011.25
2023-03-12T08:03:22.754Z,101006.31
2023-03-12T08:06:28.743Z,101007.16
2023-03-12T08:09:33.270Z,101006.44
2023-03-12T08:12:38.367Z,100990.00
2023-03-12T08:15:42.081Z,101002.16
2023-03-12T08:18:45.860Z,100994.38
2023-03-12T08:21:52.031Z,100995.16
2023-03-12T08:24:55.642Z,100992.69
2023-03-12T08:27:59.274Z,100981.84
2023-03-12T08:31:03.725Z,100978.44
2023-03-12T08:34:07.369Z,100978.59
2023-03-12T08:37:12.392Z,100967.41
2023-03-12T08:40:16.013Z,100958.88
2023-03-12T08:43:19.745Z,100959.53
2023-03-12T08:46:23.529Z,100970.88
2023-03-12T08:49:27.426Z,100970.84
2023-03-12T08:52:32.611Z,100959.72
2023-03-12T08:55:36.222Z,100947.75
2023-03-12T08:58:39.969Z,100950.44
2023-03-12T09:01:44.050Z,100947.75
2023-03-12T09:04:49.886Z,100942.63
2023-03-12T09:07:55.247Z,100934.97
2023-03-12T09:10:58.901Z,100929.72
2023-03-12T09:14:36.653Z,100912.53
2023-03-12T09:17:27.422Z,100909.91
2023-03-12T09:20:31.292Z,100902.19
2023-03-12T09:23:36.410Z,100904.75
2023-03-12T09:26:40.166Z,100890.09
2023-03-12T09:29:58.717Z,100879.72
2023-03-12T09:33:03.862Z,100872.84
2023-03-12T09:36:08.575Z,100869.41
2023-03-12T09:39:14.386Z,100859.88
2023-03-12T09:42:26.698Z,100859.84
2023-03-12T09:45:37.558Z,100851.25
2023-03-12T09:48:41.992Z,100853.81
2023-03-12T09:51:52.559Z,100849.47
2023-03-12T09:55:08.762Z,100856.31
2023-03-12T09:58:19.548Z,100848.63
2023-03-12T10:01:39.216Z,100852.94
2023-03-12T10:04:58.857Z,100841.66
2023-03-12T10:08:24.588Z,100817.16
2023-03-12T10:11:50.997Z,100820.72
2023-03-12T10:15:16.369Z,100813.88
2023-03-12T10:18:39.511Z,100808.56
2023-03-12T10:21:54.052Z,100788.66
2023-03-12T10:25:12.200Z,100782.66
2023-03-12T10:28:23.023Z,100771.41
2023-03-12T10:31:35.935Z,100757.56
2023-03-12T10:34:45.184Z,100752.47
2023-03-12T10:37:52.258Z,100758.56
2023-03-12T10:40:55.892Z,100754.84
2023-03-12T10:44:08.994Z,100750.44
2023-03-12T10:47:31.597Z,100743.50
2023-03-12T10:50:37.627Z,100731.34
2023-03-12T10:53:44.966Z,100726.59
2023-03-12T10:56:52.055Z,100726.59
2023-03-12T11:00:12.018Z,100730.69
2023-03-12T11:03:24.213Z,100729.91
2023-03-12T11:06:31.674Z,100729.00
2023-03-12T11:09:35.444Z,100716.94
2023-03-12T11:12:41.530Z,100720.22
2023-03-12T11:15:46.586Z,100720.38
2023-03-12T11:18:59.959Z,100723.69
2023-03-12T11:22:07.310Z,100719.53
2023-03-12T11:25:25.509Z,100721.34
2023-03-12T11:28:40.665Z,100729.91
2023-03-12T11:31:57.249Z,100729.94
2023-03-12T11:35:01.757Z,100708.31
2023-03-12T11:38:17.427Z,100712.94
2023-03-12T11:41:53.815Z,100702.66
2023-03-12T11:45:14.202Z,100699.09
2023-03-12T11:48:30.647Z,100707.00
2023-03-12T11:51:52.653Z,100708.78
2023-03-12T11:55:39.720Z,100708.91
2023-03-12T11:59:04.155Z,100714.88
2023-03-12T12:02:36.456Z,100721.88
2023-03-12T12:05:56.775Z,100722.78
2023-03-12T12:09:26.417Z,100708.97
2023-03-12T12:12:55.678Z,100708.97
2023-03-12T12:16:19.233Z,100702.97
2023-03-12T12:19:48.535Z,100696.06
2023-03-12T12:23:15.905Z,100680.53
2023-03-12T12:26:30.348Z,100686.56
2023-03-12T12:29:56.137Z,100679.66
2023-03-12T12:33:24.522Z,100671.88
2023-03-12T12:36:35.325Z,100662.44
2023-03-12T12:39:49.929Z,100677.94
2023-03-12T12:43:12.481Z,100679.69
2023-03-12T12:46:22.803Z,100673.66
2023-03-12T12:49:40.877Z,100679.66
2023-03-12T12:52:46.138Z,100671.06
2023-03-12T12:56:09.910Z,100663.28
2023-03-12T12:59:39.486Z,100655.56
2023-03-12T13:02:48.228Z,100649.53
2023-03-12T13:06:02.502Z,100642.63
2023-03-12T13:09:21.736Z,100635.72
2023-03-12T13:12:34.847Z,100634.84
2023-03-12T13:15:49.141Z,100621.09
2023-03-12T13:19:02.052Z,100614.16
2023-03-12T13:22:22.588Z,100621.94
2023-03-12T13:25:49.973Z,100616.78
2023-03-12T13:29:36.700Z,100614.19
2023-03-12T13:33:14.242Z,100605.56
2023-03-12T13:36:28.289Z,100609.88
2023-03-12T13:39:35.745Z,100605.53
2023-03-12T13:42:43.749Z,100597.81
2023-03-12T13:46:09.173Z,100592.59
2023-03-12T13:49:21.643Z,100583.97
2023-03-12T13:52:31.027Z,100583.13
2023-03-12T13:55:37.837Z,100583.97
2023-03-12T13:58:50.494Z,100586.53
2023-03-12T14:02:06.146Z,100589.16
2023-03-12T14:05:15.158Z,100586.56
2023-03-12T14:08:59.194Z,100571.88
2023-03-12T14:12:12.827Z,100571.00
2023-03-12T14:15:49.104Z,100571.03
2023-03-12T14:18:56.226Z,100573.66
2023-03-12T14:22:08.467Z,100570.16
2023-03-12T14:25:24.573Z,100569.28
2023-03-12T14:28:32.069Z,100571.91
2023-03-12T14:31:38.368Z,100576.25
2023-03-12T14:34:48.579Z,100557.28
2023-03-12T14:38:01.494Z,100562.44
2023-03-12T14:41:14.815Z,100555.50
2023-03-12T14:44:26.595Z,100548.63
2023-03-12T14:47:31.407Z,100545.16
2023-03-12T14:50:42.995Z,100547.78
2023-03-12T14:53:46.729Z,100543.44
2023-03-12T14:56:50.789Z,100545.16
2023-03-12T14:59:56.657Z,100539.09
2023-03-12T15:03:06.600Z,100530.47
2023-03-12T15:06:21.048Z,100522.72
2023-03-12T15:09:29.690Z,100521.81
2023-03-12T15:12:39.303Z,100525.25
2023-03-12T15:15:47.529Z,100525.22
2023-03-12T15:18:53.044Z,100526.09
2023-03-12T15:21:58.671Z,100526.09
2023-03-12T15:25:05.509Z,100516.53
2023-03-12T15:28:30.281Z,100515.66
2023-03-12T15:31:44.948Z,100513.09
2023-03-12T15:34:50.159Z,100513.84
2023-03-12T15:38:03.753Z,100511.28
2023-03-12T15:41:21.581Z,100502.63
2023-03-12T15:44:30.207Z,100501.72
2023-03-12T15:47:41.579Z,100506.00
2023-03-12T15:50:47.314Z,100505.97
2023-03-12T15:54:02.433Z,100510.28
2023-03-12T15:57:25.198Z,100499.88
2023-03-12T16:00:32.685Z,100493.78
2023-03-12T16:03:37.727Z,100498.88
2023-03-12T16:06:44.602Z,100504.00
2023-03-12T16:09:50.134Z,100509.19
2023-03-12T16:13:03.222Z,100500.50
2023-03-12T16:16:08.305Z,100504.84
2023-03-12T16:19:15.646Z,100491.84
2023-03-12T16:22:20.466Z,100499.59
2023-03-12T16:25:27.661Z,100507.38
2023-03-12T16:28:32.359Z,100504.75
2023-03-12T16:31:36.356Z,100503.88
2023-03-12T16:34:40.232Z,100504.72
2023-03-12T16:37:44.988Z,100503.78
2023-03-12T16:40:53.025Z,100499.44
2023-03-12T16:43:56.982Z,100493.31
2023-03-12T16:47:02.241Z,100505.47
2023-03-12T16:50:18.619Z,100506.28
2023-03-12T16:53:23.566Z,100513.22
2023-03-12T16:56:31.510Z,100501.88
2023-03-12T16:59:38.182Z,100498.34
2023-03-12T17:02:43.001Z,100505.25
2023-03-12T17:05:47.600Z,100506.00
2023-03-12T17:08:53.959Z,100499.91
2023-03-12T17:12:00.475Z,100497.22
2023-03-12T17:15:08.981Z,100493.72
2023-03-12T17:18:13.836Z,100492.03
2023-03-12T17:21:20.751Z,100507.63
2023-03-12T17:24:28.063Z,100502.31
2023-03-12T17:27:34.029Z,100503.09
2023-03-12T17:30:38.839Z,100495.16
2023-03-12T17:33:43.309Z,100496.09
2023-03-12T17:36:47.020Z,100506.53
2023-03-12T17:39:50.787Z,100511.53
2023-03-12T17:42:56.287Z,100512.41
2023-03-12T17:46:05.753Z,100506.38
2023-03-12T17:49:10.479Z,100512.41
2023-03-12T17:52:14.236Z,100522.50
2023-03-12T17:55:18.549Z,100522.59
2023-03-12T17:58:23.910Z,100514.72
2023-03-12T18:01:28.472Z,100518.00
2023-03-12T18:04:33.315Z,100524.09
2023-03-12T18:07:37.903Z,100520.50
2023-03-12T18:10:42.040Z,100515.34
2023-03-12T18:13:49.500Z,100521.06
2023-03-12T18:16:54.258Z,100521.28
2023-03-12T18:19:59.305Z,100524.28
2023-03-12T18:23:03.068Z,100528.13
2023-03-12T18:26:10.241Z,100537.41
2023-03-12T18:29:15.412Z,100536.56
2023-03-12T18:32:20.314Z,100542.75
2023-03-12T18:35:30.560Z,100540.13
2023-03-12T18:38:35.797Z,100536.44
2023-03-12T18:41:42.026Z,100533.78
2023-03-12T18:44:48.132Z,100525.16
2023-03-12T18:47:52.590Z,100521.47
2023-03-12T18:50:57.101Z,100524.16
2023-03-12T18:54:03.146Z,100519.88
2023-03-12T18:57:07.287Z,100521.56
2023-03-12T19:00:18.278Z,100521.75
2023-03-12T19:03:24.424Z,100525.19
2023-03-12T19:06:29.648Z,100517.47
2023-03-12T19:09:37.625Z,100520.66
2023-03-12T19:12:52.087Z,100518.88
2023-03-12T19:16:03.948Z,100514.66
2023-03-12T19:19:07.651Z,100512.72
2023-03-12T19:22:11.256Z,100518.09
2023-03-12T19:25:15.839Z,100511.94
2023-03-12T19:28:19.616Z,100513.69
2023-03-12T19:31:25.430Z,100516.34
2023-03-12T19:34:29.349Z,100516.28
2023-03-12T19:37:32.917Z,100506.53
2023-03-12T19:40:36.887Z,100489.28
2023-03-12T19:43:41.311Z,100497.03
2023-03-12T19:46:46.468Z,100511.16
2023-03-12T19:49:50.285Z,100501.63
2023-03-12T19:52:53.949Z,100518.03
2023-03-12T19:55:57.536Z,100517.25
2023-03-12T19:59:01.130Z,100518.88
2023-03-12T20:02:06.417Z,100516.28
2023-03-12T20:05:12.075Z,100515.53
2023-03-12T20:08:15.893Z,100514.75
2023-03-12T20:11:19.595Z,100513.03
2023-03-12T20:14:23.318Z,100513.25
2023-03-12T20:17:28.520Z,100508.06
2023-03-12T20:20:32.224Z,100514.03
2023-03-12T20:23:36.078Z,100503.81
2023-03-12T20:26:40.267Z,100501.19
2023-03-12T20:29:46.205Z,100490.94
2023-03-12T20:32:51.219Z,100493.50
2023-03-12T20:35:56.162Z,100491.75
2023-03-12T20:38:59.917Z,100490.88
2023-03-12T20:42:03.629Z,100486.59
2023-03-12T20:45:08.874Z,100481.47
2023-03-12T20:48:13.882Z,100484.81
2023-03-12T20:51:18.015Z,100474.50
2023-03-12T20:54:22.016Z,100471.81
2023-03-12T20:57:25.692Z,100462.25
2023-03-12T21:00:29.424Z,100457.91
2023-03-12T21:03:35.394Z,100457.94
2023-03-12T21:06:39.187Z,100461.31
2023-03-12T21:09:42.823Z,100457.03
2023-03-12T21:12:47.349Z,100457.84
2023-03-12T21:15:52.129Z,100451.78
2023-03-12T21:18:59.745Z,100447.50
2023-03-12T21:22:03.313Z,100447.41
2023-03-12T21:25:08.243Z,100446.47
2023-03-12T21:28:12.160Z,100442.13
2023-03-12T21:31:18.201Z,100452.38
2023-03-12T21:34:23.711Z,100446.44
2023-03-12T21:37:28.363Z,100445.56
2023-03-12T21:40:32.020Z,100442.94
2023-03-12T21:43:35.713Z,100444.66
2023-03-12T21:46:39.567Z,100435.19
2023-03-12T21:49:44.897Z,100434.41
2023-03-12T21:52:49.460Z,100424.84
2023-03-12T21:55:57.506Z,100432.75
2023-03-12T21:59:01.092Z,100422.41
2023-03-12T22:02:04.822Z,100419.91
2023-03-12T22:05:11.612Z,100417.28
2023-03-12T22:08:15.214Z,100412.88
2023-03-12T22:11:19.092Z,100407.59
2023-03-12T22:14:24.224Z,100405.81
2023-03-12T22:17:27.858Z,100397.03
2023-03-12T22:20:34.858Z,100395.22
2023-03-12T22:23:38.780Z,100388.31
2023-03-12T22:26:42.416Z,100389.03
2023-03-12T22:29:46.127Z,100386.56
2023-03-12T22:32:49.925Z,100383.00
2023-03-12T22:35:55.850Z,100372.63
2023-03-12T22:38:59.510Z,100370.06
2023-03-12T22:42:03.265Z,100371.72
2023-03-12T22:45:08.940Z,100378.59
2023-03-12T22:48:12.633Z,100369.91
2023-03-12T22:51:17.603Z,100367.13
2023-03-12T22:54:21.295Z,100365.53
2023-03-12T22:57:25.018Z,100362.16
2023-03-12T23:00:28.718Z,100365.44
2023-03-12T23:03:36.148Z,100353.22
2023-03-12T23:06:41.258Z,100353.38
2023-03-12T23:09:45.100Z,100342.81
2023-03-12T23:12:48.684Z,100335.75
2023-03-12T23:15:53.203Z,100334.09
2023-03-12T23:18:57.339Z,100332.34
2023-03-12T23:22:02.352Z,100316.59
2023-03-12T23:25:06.966Z,100314.84
2023-03-12T23:28:10.633Z,100310.63
2023-03-12T23:31:16.153Z,100309.56
2023-03-12T23:34:20.142Z,100305.25
2023-03-12T23:37:25.304Z,100301.69
2023-03-12T23:40:28.937Z,100289.59
2023-03-12T23:43:32.979Z,100292.19
2023-03-12T23:46:36.609Z,100291.16
2023-03-12T23:49:40.229Z,100288.56
2023-03-12T23:52:45.152Z,100284.13
2023-03-12T23:55:57.415Z,100283.31
2023-03-12T23:59:01.180Z,100277.81
